Isola Di Capri — IBBY — position and weather

sailwx.info

Track history (hours):
 
Tides and Currents Weather Stations Pressure Air Temp Water Temp Dewpoint Dewpoint Depression Visibility Wind Speed Wind Dir Waves Ship Positions

Isola Di Capri

Last reported at 2017-Dec-10 19:20 UTC. Time now 2017-Dec-11 04:13 UTC.
Position N 40°46' E 014°02'.

Length 71 m; draft 2.3 m.

Type: Ship. MMSI: 247300000.

Date/timePositionNaut miles runAvg speedWind from/ knotsBaromVisibWave heightAir tempDewpointWater temp
2017-Dec-10 19:20N 40°46' E 014°02'516.1
2017-Dec-10 19:00N 40°47' E 014°09'6 4.1
2017-Dec-10 17:37N 40°49' E 014°16'216.2
2017-Dec-10 17:30N 40°48' E 014°14'10 4.1
2017-Dec-10 15:12N 40°46' E 014°02'314.5
2017-Dec-10 14:59N 40°46' E 014°05'815.3
2017-Dec-10 14:29N 40°49' E 014°15'1 1.2
2017-Dec-10 13:15N 40°49' E 014°17'416.4
2017-Dec-10 13:00N 40°47' E 014°12'8 2.8
2017-Dec-10 10:01N 40°46' E 014°01'1 2.6
2017-Dec-10 09:48N 40°46' E 014°02'5 3.4
2017-Dec-10 08:24N 40°49' E 014°07'5 0.1
2017-Dec-08 19:23N 40°46' E 014°02'615.8
2017-Dec-08 19:01N 40°47' E 014°10'6 4.5
2017-Dec-08 17:41N 40°50' E 014°17'315.5
2017-Dec-08 17:30N 40°48' E 014°14'10 4.9
2017-Dec-08 15:25N 40°46' E 014°01'3 7.2
2017-Dec-08 14:59N 40°46' E 014°05'815.8
2017-Dec-08 14:30N 40°48' E 014°14'2 1.7
2017-Dec-08 13:19N 40°49' E 014°17'516.4
2017-Dec-08 13:00N 40°47' E 014°11'7 2.1
2017-Dec-08 09:45N 40°46' E 014°02'3 2.2
2017-Dec-08 08:16N 40°47' E 014°06'1 0.1
2017-Dec-07 19:10N 40°46' E 014°05'316.6
2017-Dec-07 19:00N 40°47' E 014°09'6 4.2
2017-Dec-07 17:38N 40°48' E 014°16'216.6
2017-Dec-07 17:30N 40°47' E 014°13'7 3.1
2017-Dec-07 15:08N 40°46' E 014°04'213.8
2017-Dec-07 15:00N 40°46' E 014°06'8 4.7
2017-Dec-07 13:20N 40°48' E 014°16'616.4
2017-Dec-07 12:59N 40°46' E 014°09'3 1.0
2017-Dec-07 09:40N 40°46' E 014°05'  
Track history (hours):
 
Tides and Currents Weather Stations Pressure Air Temp Water Temp Dewpoint Dewpoint Depression Visibility Wind Speed Wind Dir Waves Ship Positions

Isola Di Capri

Last reported at 2017-Dec-10 19:20 UTC. Time now 2017-Dec-11 04:13 UTC.
Position N 40°46' E 014°02'.

Length 71 m; draft 2.3 m.

Type: Ship. MMSI: 247300000.

Date/timePositionNaut miles runAvg speedWind from/ knotsBaromVisibWave heightAir tempDewpointWater temp
2017-Dec-10 19:20N 40°46' E 014°02'516.1
2017-Dec-10 19:00N 40°47' E 014°09'6 4.1
2017-Dec-10 17:37N 40°49' E 014°16'216.2
2017-Dec-10 17:30N 40°48' E 014°14'10 4.1
2017-Dec-10 15:12N 40°46' E 014°02'314.5
2017-Dec-10 14:59N 40°46' E 014°05'815.3
2017-Dec-10 14:29N 40°49' E 014°15'1 1.2
2017-Dec-10 13:15N 40°49' E 014°17'416.4
2017-Dec-10 13:00N 40°47' E 014°12'8 2.8
2017-Dec-10 10:01N 40°46' E 014°01'1 2.6
2017-Dec-10 09:48N 40°46' E 014°02'5 3.4
2017-Dec-10 08:24N 40°49' E 014°07'5 0.1
2017-Dec-08 19:23N 40°46' E 014°02'615.8
2017-Dec-08 19:01N 40°47' E 014°10'6 4.5
2017-Dec-08 17:41N 40°50' E 014°17'315.5
2017-Dec-08 17:30N 40°48' E 014°14'10 4.9
2017-Dec-08 15:25N 40°46' E 014°01'3 7.2
2017-Dec-08 14:59N 40°46' E 014°05'815.8
2017-Dec-08 14:30N 40°48' E 014°14'2 1.7
2017-Dec-08 13:19N 40°49' E 014°17'516.4
2017-Dec-08 13:00N 40°47' E 014°11'7 2.1
2017-Dec-08 09:45N 40°46' E 014°02'3 2.2
2017-Dec-08 08:16N 40°47' E 014°06'1 0.1
2017-Dec-07 19:10N 40°46' E 014°05'316.6
2017-Dec-07 19:00N 40°47' E 014°09'6 4.2
2017-Dec-07 17:38N 40°48' E 014°16'216.6
2017-Dec-07 17:30N 40°47' E 014°13'7 3.1
2017-Dec-07 15:08N 40°46' E 014°04'213.8
2017-Dec-07 15:00N 40°46' E 014°06'8 4.7
2017-Dec-07 13:20N 40°48' E 014°16'616.4
2017-Dec-07 12:59N 40°46' E 014°09'3 1.0
2017-Dec-07 09:40N 40°46' E 014°05'  

Dump ship's entire track history